createdAt,value
2023-05-22T00:00:33.115Z,479.00
2023-05-22T00:01:33.185Z,482.00
2023-05-22T00:02:33.396Z,482.00
2023-05-22T00:03:33.394Z,481.00
2023-05-22T00:04:33.371Z,481.00
2023-05-22T00:05:33.541Z,481.00
2023-05-22T00:06:33.497Z,481.00
2023-05-22T00:07:33.587Z,479.00
2023-05-22T00:08:33.627Z,479.00
2023-05-22T00:09:33.693Z,480.00
2023-05-22T00:10:33.767Z,479.00
2023-05-22T00:11:33.824Z,480.00
2023-05-22T00:12:33.884Z,481.00
2023-05-22T00:13:33.962Z,481.00
2023-05-22T00:14:34.004Z,481.00
2023-05-22T00:15:34.074Z,480.00
2023-05-22T00:16:34.184Z,482.00
2023-05-22T00:17:34.482Z,482.00
2023-05-22T00:18:34.271Z,485.00
2023-05-22T00:19:34.354Z,485.00
2023-05-22T00:20:34.384Z,483.00
2023-05-22T00:21:34.455Z,483.00
2023-05-22T00:22:34.520Z,482.00
2023-05-22T00:23:34.591Z,483.00
2023-05-22T00:24:34.640Z,484.00
2023-05-22T00:25:34.685Z,485.00
2023-05-22T00:26:34.755Z,484.00
2023-05-22T00:27:34.930Z,483.00
2023-05-22T00:28:34.901Z,485.00
2023-05-22T00:29:34.932Z,486.00
2023-05-22T00:30:34.997Z,485.00
2023-05-22T00:31:35.063Z,484.00
2023-05-22T00:32:35.148Z,483.00
2023-05-22T00:33:35.180Z,484.00
2023-05-22T00:34:35.262Z,486.00
2023-05-22T00:35:35.327Z,488.00
2023-05-22T00:36:35.417Z,490.00
2023-05-22T00:37:35.461Z,489.00
2023-05-22T00:38:35.504Z,488.00
2023-05-22T00:39:35.584Z,489.00
2023-05-22T00:40:35.654Z,488.00
2023-05-22T00:41:35.701Z,488.00
2023-05-22T00:42:35.769Z,487.00
2023-05-22T00:43:35.820Z,487.00
2023-05-22T00:44:35.874Z,490.00
2023-05-22T00:45:35.955Z,487.00
2023-05-22T00:46:36.105Z,487.00
2023-05-22T00:47:36.114Z,488.00
2023-05-22T00:48:36.151Z,486.00
2023-05-22T00:49:36.170Z,484.00
2023-05-22T00:50:36.415Z,483.00
2023-05-22T00:51:36.322Z,483.00
2023-05-22T00:52:36.373Z,487.00
2023-05-22T00:53:36.407Z,488.00
2023-05-22T00:54:36.458Z,489.00
2023-05-22T00:55:36.543Z,491.00
2023-05-22T00:56:36.581Z,493.00
2023-05-22T00:57:36.659Z,493.00
2023-05-22T00:58:36.723Z,492.00
2023-05-22T00:59:36.799Z,493.00
2023-05-22T01:00:36.996Z,494.00
2023-05-22T01:01:36.932Z,492.00
2023-05-22T01:02:37.068Z,493.00
2023-05-22T01:03:37.134Z,492.00
2023-05-22T01:04:37.044Z,493.00
2023-05-22T01:05:37.108Z,493.00
2023-05-22T01:06:37.178Z,492.00
2023-05-22T01:07:37.253Z,491.00
2023-05-22T01:08:37.288Z,491.00
2023-05-22T01:09:37.346Z,490.00
2023-05-22T01:10:37.613Z,490.00
2023-05-22T01:11:37.484Z,490.00
2023-05-22T01:12:37.553Z,488.00
2023-05-22T01:13:37.607Z,490.00
2023-05-22T01:14:37.672Z,491.00
2023-05-22T01:15:37.763Z,491.00
2023-05-22T01:16:37.865Z,490.00
2023-05-22T01:17:37.930Z,491.00
2023-05-22T01:18:37.952Z,491.00
2023-05-22T01:19:37.996Z,491.00
2023-05-22T01:20:38.247Z,491.00
2023-05-22T01:21:38.121Z,492.00
2023-05-22T01:22:38.189Z,489.00
2023-05-22T01:23:38.272Z,489.00
2023-05-22T01:24:38.308Z,491.00
2023-05-22T01:25:38.360Z,490.00
2023-05-22T01:26:38.429Z,488.00
2023-05-22T01:27:38.494Z,488.00
2023-05-22T01:28:38.563Z,491.00
2023-05-22T01:29:38.617Z,489.00
2023-05-22T01:30:38.788Z,490.00
2023-05-22T01:31:38.752Z,490.00
2023-05-22T01:32:38.848Z,489.00
2023-05-22T01:33:38.973Z,487.00
2023-05-22T01:34:38.967Z,489.00
2023-05-22T01:35:39.015Z,488.00
2023-05-22T01:36:39.070Z,487.00
2023-05-22T01:37:39.136Z,488.00
2023-05-22T01:38:39.205Z,489.00
2023-05-22T01:39:39.272Z,490.00
2023-05-22T01:40:39.542Z,493.00
2023-05-22T01:41:39.382Z,493.00
2023-05-22T01:42:39.446Z,494.00
2023-05-22T01:43:39.511Z,493.00
2023-05-22T01:44:39.579Z,495.00
2023-05-22T01:45:39.687Z,494.00
2023-05-22T01:46:39.693Z,494.00
2023-05-22T01:47:40.149Z,493.00
2023-05-22T01:48:39.818Z,492.00
2023-05-22T01:49:39.911Z,492.00
2023-05-22T01:50:40.221Z,493.00
2023-05-22T01:51:40.024Z,494.00
2023-05-22T01:52:40.069Z,492.00
2023-05-22T01:53:40.122Z,493.00
2023-05-22T01:54:40.187Z,493.00
2023-05-22T01:55:40.257Z,495.00
2023-05-22T01:56:40.331Z,496.00
2023-05-22T01:57:40.408Z,495.00
2023-05-22T01:58:40.456Z,497.00
2023-05-22T01:59:40.530Z,501.00
2023-05-22T02:00:40.665Z,498.00
2023-05-22T02:01:40.691Z,498.00
2023-05-22T02:02:40.846Z,497.00
2023-05-22T02:03:40.918Z,497.00
2023-05-22T02:04:40.863Z,500.00
2023-05-22T02:05:40.905Z,499.00
2023-05-22T02:06:40.979Z,500.00
2023-05-22T02:07:41.026Z,499.00
2023-05-22T02:08:41.089Z,500.00
2023-05-22T02:09:41.149Z,500.00
2023-05-22T02:10:41.397Z,500.00
2023-05-22T02:11:41.303Z,499.00
2023-05-22T02:12:41.340Z,497.00
2023-05-22T02:13:41.418Z,497.00
2023-05-22T02:14:41.473Z,496.00
2023-05-22T02:15:41.549Z,496.00
2023-05-22T02:16:41.589Z,498.00
2023-05-22T02:17:41.741Z,500.00
2023-05-22T02:18:41.696Z,498.00
2023-05-22T02:19:41.867Z,499.00
2023-05-22T02:20:41.838Z,498.00
2023-05-22T02:21:41.892Z,499.00
2023-05-22T02:22:41.964Z,499.00
2023-05-22T02:23:42.034Z,497.00
2023-05-22T02:24:42.107Z,497.00
2023-05-22T02:25:42.144Z,497.00
2023-05-22T02:26:42.218Z,496.00
2023-05-22T02:27:42.315Z,494.00
2023-05-22T02:28:42.337Z,496.00
2023-05-22T02:29:42.394Z,496.00
2023-05-22T02:30:42.461Z,498.00
2023-05-22T02:31:42.617Z,497.00
2023-05-22T02:32:42.983Z,496.00
2023-05-22T02:33:42.672Z,495.00
2023-05-22T02:34:42.715Z,495.00
2023-05-22T02:35:42.781Z,495.00
2023-05-22T02:36:42.841Z,495.00
2023-05-22T02:37:42.916Z,496.00
2023-05-22T02:38:42.946Z,495.00
2023-05-22T02:39:43.011Z,495.00
2023-05-22T02:40:43.065Z,494.00
2023-05-22T02:41:43.139Z,492.00
2023-05-22T02:42:43.177Z,492.00
2023-05-22T02:43:43.245Z,492.00
2023-05-22T02:44:43.306Z,492.00
2023-05-22T02:45:43.366Z,494.00
2023-05-22T02:46:43.449Z,494.00
2023-05-22T02:47:43.494Z,494.00
2023-05-22T02:48:43.556Z,494.00
2023-05-22T02:49:43.607Z,495.00
2023-05-22T02:50:43.650Z,495.00
2023-05-22T02:51:43.753Z,496.00
2023-05-22T02:52:43.787Z,498.00
2023-05-22T02:53:43.827Z,498.00
2023-05-22T02:54:43.870Z,497.00
2023-05-22T02:55:43.933Z,498.00
2023-05-22T02:56:43.999Z,497.00
2023-05-22T02:57:44.061Z,496.00
2023-05-22T02:58:44.131Z,497.00
2023-05-22T02:59:44.204Z,496.00
2023-05-22T03:00:44.243Z,495.00
2023-05-22T03:01:44.456Z,495.00
2023-05-22T03:02:44.614Z,496.00
2023-05-22T03:03:44.616Z,494.00
2023-05-22T03:04:44.522Z,495.00
2023-05-22T03:05:44.572Z,495.00
2023-05-22T03:06:44.632Z,495.00
2023-05-22T03:07:46.720Z,493.00
2023-05-22T03:08:44.688Z,489.00
2023-05-22T03:09:44.707Z,490.00
2023-05-22T03:10:44.674Z,490.00
2023-05-22T03:11:44.679Z,490.00
2023-05-22T03:12:44.668Z,489.00
2023-05-22T03:13:44.639Z,489.00
2023-05-22T03:14:44.642Z,488.00
2023-05-22T03:15:44.647Z,487.00
2023-05-22T03:16:44.812Z,488.00
2023-05-22T03:17:44.677Z,489.00
2023-05-22T03:18:44.679Z,488.00
2023-05-22T03:19:44.606Z,489.00
2023-05-22T03:20:44.626Z,489.00
2023-05-22T03:21:44.685Z,494.00
2023-05-22T03:22:44.596Z,492.00
2023-05-22T03:23:44.592Z,491.00
2023-05-22T03:24:44.585Z,491.00
2023-05-22T03:25:44.591Z,489.00
2023-05-22T03:26:44.587Z,491.00
2023-05-22T03:27:44.562Z,493.00
2023-05-22T03:28:44.583Z,493.00
2023-05-22T03:29:44.561Z,495.00
2023-05-22T03:30:44.545Z,495.00
2023-05-22T03:31:44.549Z,497.00
2023-05-22T03:32:44.590Z,497.00
2023-05-22T03:33:44.585Z,497.00
2023-05-22T03:34:44.563Z,494.00
2023-05-22T03:35:44.658Z,495.00
2023-05-22T03:36:44.668Z,495.00
2023-05-22T03:37:44.732Z,495.00
2023-05-22T03:38:44.796Z,495.00
2023-05-22T03:39:44.862Z,496.00
2023-05-22T03:40:44.929Z,495.00
2023-05-22T03:41:44.976Z,494.00
2023-05-22T03:42:45.034Z,493.00
2023-05-22T03:43:45.348Z,492.00
2023-05-22T03:44:45.125Z,492.00
2023-05-22T03:45:45.181Z,493.00
2023-05-22T03:46:45.200Z,494.00
2023-05-22T03:47:45.275Z,495.00
2023-05-22T03:48:45.286Z,497.00
2023-05-22T03:49:45.340Z,496.00
2023-05-22T03:50:45.398Z,495.00
2023-05-22T03:51:45.450Z,496.00
2023-05-22T03:52:45.516Z,497.00
2023-05-22T03:53:45.554Z,499.00
2023-05-22T03:54:45.597Z,498.00
2023-05-22T03:55:45.660Z,499.00
2023-05-22T03:56:45.721Z,500.00
2023-05-22T03:57:45.774Z,500.00
2023-05-22T03:58:45.846Z,499.00
2023-05-22T03:59:45.908Z,498.00
2023-05-22T04:00:45.970Z,496.00
2023-05-22T04:01:46.024Z,497.00
2023-05-22T04:02:46.132Z,496.00
2023-05-22T04:03:46.148Z,495.00
2023-05-22T04:04:46.352Z,495.00
2023-05-22T04:05:46.256Z,496.00
2023-05-22T04:06:46.336Z,493.00
2023-05-22T04:07:46.383Z,494.00
2023-05-22T04:08:46.427Z,496.00
2023-05-22T04:09:46.502Z,498.00
2023-05-22T04:10:46.681Z,497.00
2023-05-22T04:11:46.615Z,497.00
2023-05-22T04:12:46.665Z,498.00
2023-05-22T04:13:46.729Z,497.00
2023-05-22T04:14:46.762Z,498.00
2023-05-22T04:15:47.062Z,498.00
2023-05-22T04:16:47.931Z,499.00
2023-05-22T04:17:46.898Z,500.00
2023-05-22T04:18:46.923Z,500.00
2023-05-22T04:19:46.859Z,500.00
2023-05-22T04:20:46.833Z,501.00
2023-05-22T04:21:46.830Z,500.00
2023-05-22T04:22:46.859Z,500.00
2023-05-22T04:23:46.828Z,499.00
2023-05-22T04:24:46.805Z,501.00
2023-05-22T04:25:46.861Z,501.00
2023-05-22T04:26:46.802Z,501.00
2023-05-22T04:27:46.799Z,502.00
2023-05-22T04:28:46.780Z,503.00
2023-05-22T04:29:46.803Z,502.00
2023-05-22T04:30:46.852Z,500.00
2023-05-22T04:31:46.774Z,500.00
2023-05-22T04:32:46.876Z,500.00
2023-05-22T04:33:46.751Z,502.00
2023-05-22T04:34:46.734Z,502.00
2023-05-22T04:35:46.730Z,501.00
2023-05-22T04:36:46.745Z,501.00
2023-05-22T04:37:46.757Z,500.00
2023-05-22T04:38:46.716Z,502.00
2023-05-22T04:39:46.712Z,503.00
2023-05-22T04:40:46.709Z,500.00
2023-05-22T04:41:46.705Z,498.00
2023-05-22T04:42:46.689Z,499.00
2023-05-22T04:43:46.683Z,498.00
2023-05-22T04:44:46.673Z,498.00
2023-05-22T04:45:46.658Z,499.00
2023-05-22T04:46:46.714Z,496.00
2023-05-22T04:47:46.684Z,494.00
2023-05-22T04:48:46.647Z,496.00
2023-05-22T04:49:46.654Z,497.00
2023-05-22T04:50:46.655Z,497.00
2023-05-22T04:51:46.619Z,496.00
2023-05-22T04:52:46.620Z,495.00
2023-05-22T04:53:46.606Z,495.00
2023-05-22T04:54:46.601Z,491.00
2023-05-22T04:55:46.622Z,490.00
2023-05-22T04:56:46.681Z,493.00
2023-05-22T04:57:46.741Z,494.00
2023-05-22T04:58:46.808Z,495.00
2023-05-22T04:59:46.939Z,497.00
2023-05-22T05:00:46.953Z,497.00
2023-05-22T05:01:46.980Z,497.00
2023-05-22T05:02:47.574Z,497.00
2023-05-22T05:03:47.153Z,500.00
2023-05-22T05:04:47.173Z,502.00
2023-05-22T05:05:47.234Z,502.00
2023-05-22T05:06:47.300Z,501.00
2023-05-22T05:07:49.740Z,499.00
2023-05-22T05:08:47.588Z,496.00
2023-05-22T05:09:47.675Z,496.00
2023-05-22T05:10:47.709Z,497.00
2023-05-22T05:11:47.769Z,499.00
2023-05-22T05:12:47.844Z,500.00
2023-05-22T05:13:47.919Z,501.00
2023-05-22T05:14:47.980Z,500.00
2023-05-22T05:15:48.050Z,500.00
2023-05-22T05:16:48.202Z,500.00
2023-05-22T05:17:48.201Z,501.00
2023-05-22T05:18:48.254Z,499.00
2023-05-22T05:19:48.299Z,499.00
2023-05-22T05:20:48.381Z,498.00
2023-05-22T05:21:48.419Z,498.00
2023-05-22T05:22:48.512Z,496.00
2023-05-22T05:23:48.740Z,496.00
2023-05-22T05:24:48.662Z,496.00
2023-05-22T05:25:48.697Z,495.00
2023-05-22T05:26:48.778Z,495.00
2023-05-22T05:27:48.865Z,496.00
2023-05-22T05:28:48.889Z,494.00
2023-05-22T05:29:48.992Z,494.00
2023-05-22T05:30:49.058Z,503.00
2023-05-22T05:31:49.089Z,524.00
2023-05-22T05:32:49.191Z,541.00
2023-05-22T05:33:49.184Z,555.00
2023-05-22T05:34:49.269Z,641.00
2023-05-22T05:35:49.304Z,740.00
2023-05-22T05:36:49.369Z,729.00
2023-05-22T05:37:49.451Z,729.00
2023-05-22T05:38:49.494Z,763.00
2023-05-22T05:39:49.510Z,769.00
2023-05-22T05:40:49.580Z,795.00
2023-05-22T05:41:49.613Z,822.00
2023-05-22T05:42:49.661Z,834.00
2023-05-22T05:43:49.723Z,821.00
2023-05-22T05:44:49.769Z,819.00
2023-05-22T05:45:49.839Z,816.00
2023-05-22T05:46:49.874Z,820.00
2023-05-22T05:47:49.951Z,832.00
2023-05-22T05:48:49.941Z,872.00
2023-05-22T05:49:50.041Z,896.00
2023-05-22T05:50:50.036Z,906.00
2023-05-22T05:51:50.027Z,916.00
2023-05-22T05:52:50.071Z,923.00
2023-05-22T05:53:50.156Z,936.00
2023-05-22T05:54:50.096Z,953.00
2023-05-22T05:55:50.110Z,971.00
2023-05-22T05:56:50.092Z,984.00
2023-05-22T05:57:50.090Z,998.00
2023-05-22T05:58:50.094Z,1012.00
2023-05-22T05:59:50.070Z,1025.00
2023-05-22T06:00:50.086Z,1038.00
2023-05-22T06:01:50.056Z,1055.00
2023-05-22T06:02:51.017Z,1067.00
2023-05-22T06:03:50.368Z,1078.00
2023-05-22T06:04:50.138Z,1090.00
2023-05-22T06:05:50.285Z,1103.00
2023-05-22T06:06:50.212Z,1118.00
2023-05-22T06:07:50.287Z,1138.00
2023-05-22T06:08:50.357Z,1148.00
2023-05-22T06:09:50.530Z,1161.00
2023-05-22T06:10:50.478Z,1171.00
2023-05-22T06:11:50.555Z,1182.00
2023-05-22T06:12:50.588Z,1193.00
2023-05-22T06:13:50.653Z,1203.00
2023-05-22T06:14:50.752Z,1210.00
2023-05-22T06:15:50.820Z,1215.00
2023-05-22T06:16:50.839Z,1225.00
2023-05-22T06:17:50.928Z,1235.00
2023-05-22T06:18:50.960Z,1242.00
2023-05-22T06:19:50.974Z,1243.00
2023-05-22T06:20:51.028Z,1248.00
2023-05-22T06:21:52.249Z,1250.00
2023-05-22T06:22:51.172Z,1250.00
2023-05-22T06:23:51.202Z,1236.00
2023-05-22T06:24:51.271Z,1211.00
2023-05-22T06:25:51.279Z,1143.00
2023-05-22T06:26:51.331Z,1065.00
2023-05-22T06:27:51.374Z,1046.00
2023-05-22T06:28:51.426Z,989.00
2023-05-22T06:29:51.486Z,976.00
2023-05-22T06:30:51.531Z,942.00
2023-05-22T06:31:51.643Z,848.00
2023-05-22T06:32:51.804Z,841.00
2023-05-22T06:33:51.786Z,819.00
2023-05-22T06:34:51.727Z,808.00
2023-05-22T06:35:51.843Z,788.00
2023-05-22T06:36:51.872Z,750.00
2023-05-22T06:37:51.876Z,759.00
2023-05-22T06:38:51.982Z,771.00
2023-05-22T06:39:52.013Z,784.00
2023-05-22T06:40:52.072Z,837.00
2023-05-22T06:41:52.102Z,847.00
2023-05-22T06:42:53.099Z,852.00
2023-05-22T06:43:52.229Z,856.00
2023-05-22T06:44:52.224Z,856.00
2023-05-22T06:45:52.271Z,866.00
2023-05-22T06:46:52.571Z,889.00
2023-05-22T06:47:52.610Z,909.00
2023-05-22T06:48:52.394Z,899.00
2023-05-22T06:49:52.452Z,894.00
2023-05-22T06:50:52.493Z,911.00
2023-05-22T06:51:52.688Z,930.00
2023-05-22T06:52:52.537Z,924.00
2023-05-22T06:53:52.570Z,919.00
2023-05-22T06:54:52.600Z,919.00
2023-05-22T06:55:52.662Z,920.00
2023-05-22T06:56:52.705Z,920.00
2023-05-22T06:57:52.754Z,917.00
2023-05-22T06:58:52.739Z,912.00
2023-05-22T06:59:52.807Z,908.00
2023-05-22T07:00:52.854Z,781.00
2023-05-22T07:01:52.910Z,802.00
2023-05-22T07:02:52.906Z,823.00
2023-05-22T07:03:52.886Z,820.00
2023-05-22T07:04:52.955Z,826.00
2023-05-22T07:05:52.969Z,845.00
2023-05-22T07:06:52.916Z,853.00
2023-05-22T07:07:52.948Z,862.00
2023-05-22T07:08:52.968Z,877.00
2023-05-22T07:09:52.969Z,881.00
2023-05-22T07:10:53.035Z,881.00
2023-05-22T07:11:53.034Z,884.00
2023-05-22T07:12:53.060Z,886.00
2023-05-22T07:13:53.069Z,879.00
2023-05-22T07:14:53.046Z,880.00
2023-05-22T07:15:53.020Z,889.00
2023-05-22T07:16:53.150Z,895.00
2023-05-22T07:17:53.141Z,898.00
2023-05-22T07:18:53.194Z,903.00
2023-05-22T07:19:53.070Z,910.00
2023-05-22T07:20:53.072Z,910.00
2023-05-22T07:21:53.331Z,912.00
2023-05-22T07:22:53.557Z,913.00
2023-05-22T07:23:53.096Z,918.00
2023-05-22T07:24:53.100Z,927.00
2023-05-22T07:25:53.115Z,929.00
2023-05-22T07:26:53.168Z,928.00
2023-05-22T07:27:53.167Z,930.00
2023-05-22T07:28:53.133Z,930.00
2023-05-22T07:29:53.097Z,935.00
2023-05-22T07:30:53.085Z,935.00
2023-05-22T07:31:53.132Z,935.00
2023-05-22T07:32:53.142Z,929.00
2023-05-22T07:33:53.095Z,921.00
2023-05-22T07:34:53.096Z,920.00
2023-05-22T07:35:53.074Z,929.00
2023-05-22T07:36:53.072Z,942.00
2023-05-22T07:37:53.548Z,996.00
2023-05-22T07:38:53.081Z,1056.00
2023-05-22T07:39:53.108Z,1078.00
2023-05-22T07:40:53.063Z,1109.00
2023-05-22T07:41:54.586Z,1124.00
2023-05-22T07:42:53.600Z,1155.00
2023-05-22T07:43:53.108Z,1192.00
2023-05-22T07:44:53.101Z,1214.00
2023-05-22T07:45:53.152Z,1234.00
2023-05-22T07:46:53.078Z,1252.00
2023-05-22T07:47:54.864Z,1290.00
2023-05-22T07:48:53.035Z,1311.00
2023-05-22T07:49:53.032Z,1336.00
2023-05-22T07:50:53.025Z,1359.00
2023-05-22T07:51:53.070Z,1382.00
2023-05-22T07:52:53.028Z,1400.00
2023-05-22T07:53:53.000Z,1428.00
2023-05-22T07:54:53.061Z,1450.00
2023-05-22T07:55:53.130Z,1465.00
2023-05-22T07:56:53.137Z,1478.00
2023-05-22T07:57:52.976Z,1488.00
2023-05-22T07:58:52.989Z,1519.00
2023-05-22T07:59:52.976Z,1560.00
2023-05-22T08:00:52.945Z,1578.00
2023-05-22T08:01:52.947Z,1571.00
2023-05-22T08:02:53.174Z,1595.00
2023-05-22T08:03:53.119Z,1618.00
2023-05-22T08:04:52.993Z,1704.00
2023-05-22T08:05:52.916Z,1743.00
2023-05-22T08:06:52.908Z,1791.00
2023-05-22T08:07:52.953Z,1812.00
2023-05-22T08:08:52.906Z,1826.00
2023-05-22T08:09:52.888Z,1883.00
2023-05-22T08:11:04.125Z,1914.00
2023-05-22T08:11:54.094Z,1909.00
2023-05-22T08:12:52.882Z,1943.00
2023-05-22T08:13:52.880Z,1966.00
2023-05-22T08:14:52.857Z,1981.00
2023-05-22T08:16:00.149Z,2014.00
2023-05-22T08:16:53.859Z,2056.00
2023-05-22T08:17:52.919Z,2054.00
2023-05-22T08:18:52.884Z,2062.00
2023-05-22T08:19:52.954Z,2076.00
2023-05-22T08:20:54.799Z,2075.00
2023-05-22T08:21:52.812Z,2091.00
2023-05-22T08:22:52.819Z,2101.00
2023-05-22T08:23:52.815Z,2057.00
2023-05-22T08:24:52.804Z,2054.00
2023-05-22T08:25:52.786Z,2059.00
2023-05-22T08:26:52.776Z,2039.00
2023-05-22T08:27:53.089Z,1977.00
2023-05-22T08:28:53.081Z,1888.00
2023-05-22T08:29:52.940Z,1714.00
2023-05-22T08:30:52.966Z,1694.00
2023-05-22T08:31:53.118Z,1706.00
2023-05-22T08:32:53.113Z,1717.00
2023-05-22T08:33:53.188Z,1714.00
2023-05-22T08:34:53.252Z,1580.00
2023-05-22T08:35:53.287Z,1568.00
2023-05-22T08:36:53.303Z,1547.00
2023-05-22T08:37:53.595Z,1468.00
2023-05-22T08:38:53.585Z,1392.00
2023-05-22T08:39:53.342Z,1350.00
2023-05-22T08:40:53.382Z,1329.00
2023-05-22T08:41:53.308Z,1310.00
2023-05-22T08:42:53.580Z,1261.00
2023-05-22T08:43:53.347Z,1288.00
2023-05-22T08:44:53.310Z,1296.00
2023-05-22T08:45:53.309Z,1302.00
2023-05-22T08:46:53.336Z,1322.00
2023-05-22T08:47:53.676Z,1353.00
2023-05-22T08:48:53.564Z,1363.00
2023-05-22T08:49:53.461Z,1363.00
2023-05-22T08:50:53.527Z,1367.00
2023-05-22T08:51:53.594Z,1375.00
2023-05-22T08:52:53.664Z,1386.00
2023-05-22T08:53:54.074Z,1391.00
2023-05-22T08:54:53.772Z,1402.00
2023-05-22T08:55:53.873Z,1403.00
2023-05-22T08:56:57.100Z,1411.00
2023-05-22T08:57:53.882Z,1421.00
2023-05-22T08:58:53.880Z,1428.00
2023-05-22T08:59:53.885Z,1440.00
2023-05-22T09:00:53.967Z,1446.00
2023-05-22T09:01:53.886Z,1455.00
2023-05-22T09:02:53.953Z,1462.00
2023-05-22T09:03:53.891Z,1472.00
2023-05-22T09:04:53.845Z,1479.00
2023-05-22T09:05:53.848Z,1485.00
2023-05-22T09:06:53.826Z,1498.00
2023-05-22T09:07:55.247Z,1519.00
2023-05-22T09:08:54.084Z,1536.00
2023-05-22T09:09:54.122Z,1542.00
2023-05-22T09:10:54.175Z,1551.00
2023-05-22T09:11:54.258Z,1560.00
2023-05-22T09:12:54.305Z,1567.00
2023-05-22T09:13:54.371Z,1580.00
2023-05-22T09:14:55.318Z,1596.00
2023-05-22T09:15:54.576Z,1612.00
2023-05-22T09:16:54.575Z,1628.00
2023-05-22T09:17:54.660Z,1639.00
2023-05-22T09:18:54.671Z,1655.00
2023-05-22T09:19:54.713Z,1675.00
2023-05-22T09:20:54.750Z,1686.00
2023-05-22T09:21:54.806Z,1693.00
2023-05-22T09:22:54.878Z,1702.00
2023-05-22T09:23:54.911Z,1713.00
2023-05-22T09:24:54.979Z,1721.00
2023-05-22T09:25:55.020Z,1733.00
2023-05-22T09:26:55.075Z,1742.00
2023-05-22T09:27:55.109Z,1752.00
2023-05-22T09:28:55.256Z,1759.00
2023-05-22T09:29:55.205Z,1769.00
2023-05-22T09:30:55.327Z,1800.00
2023-05-22T09:31:55.449Z,1668.00
2023-05-22T09:32:55.634Z,1639.00
2023-05-22T09:33:55.604Z,1727.00
2023-05-22T09:34:55.445Z,1734.00
2023-05-22T09:35:55.537Z,1665.00
2023-05-22T09:36:55.582Z,1516.00
2023-05-22T09:37:56.126Z,1512.00
2023-05-22T09:38:55.651Z,1534.00
2023-05-22T09:39:55.685Z,1555.00
2023-05-22T09:40:55.758Z,1568.00
2023-05-22T09:41:55.797Z,1564.00
2023-05-22T09:42:56.104Z,1564.00
2023-05-22T09:43:56.125Z,1564.00
2023-05-22T09:44:55.974Z,1561.00
2023-05-22T09:45:56.086Z,1555.00
2023-05-22T09:46:56.103Z,1551.00
2023-05-22T09:47:56.204Z,1541.00
2023-05-22T09:48:56.628Z,1529.00
2023-05-22T09:49:56.184Z,1521.00
2023-05-22T09:50:56.267Z,1501.00
2023-05-22T09:51:56.195Z,1493.00
2023-05-22T09:52:56.185Z,1490.00
2023-05-22T09:53:56.219Z,1473.00
2023-05-22T09:54:56.201Z,1463.00
2023-05-22T09:55:56.191Z,1462.00
2023-05-22T09:56:56.226Z,1462.00
2023-05-22T09:57:56.208Z,1457.00
2023-05-22T09:58:56.176Z,1447.00
2023-05-22T09:59:56.179Z,1445.00
2023-05-22T10:00:56.189Z,1436.00
2023-05-22T10:01:56.200Z,1424.00
2023-05-22T10:02:56.214Z,1419.00
2023-05-22T10:03:56.355Z,1415.00
2023-05-22T10:04:56.266Z,1412.00
2023-05-22T10:05:56.228Z,1411.00
2023-05-22T10:06:56.225Z,1410.00
2023-05-22T10:07:56.239Z,1407.00
2023-05-22T10:08:56.280Z,1397.00
2023-05-22T10:09:56.249Z,1400.00
2023-05-22T10:10:56.287Z,1402.00
2023-05-22T10:11:56.294Z,1399.00
2023-05-22T10:12:56.310Z,1390.00
2023-05-22T10:13:56.322Z,1383.00
2023-05-22T10:14:56.334Z,1373.00
2023-05-22T10:15:56.394Z,1369.00
2023-05-22T10:16:56.380Z,1316.00
2023-05-22T10:17:56.401Z,1361.00
2023-05-22T10:18:56.432Z,1419.00
2023-05-22T10:19:56.458Z,1492.00
2023-05-22T10:20:56.372Z,1481.00
2023-05-22T10:21:56.366Z,1474.00
2023-05-22T10:22:56.395Z,1474.00
2023-05-22T10:23:56.415Z,1473.00
2023-05-22T10:24:56.629Z,1470.00
2023-05-22T10:25:56.508Z,1387.00
2023-05-22T10:26:56.615Z,1405.00
2023-05-22T10:27:56.741Z,1393.00
2023-05-22T10:28:56.689Z,1378.00
2023-05-22T10:29:57.129Z,1152.00
2023-05-22T10:30:56.820Z,1145.00
2023-05-22T10:31:56.858Z,1107.00
2023-05-22T10:32:57.167Z,1073.00
2023-05-22T10:33:56.960Z,1064.00
2023-05-22T10:34:57.116Z,1061.00
2023-05-22T10:35:57.137Z,1061.00
2023-05-22T10:37:05.945Z,1065.00
2023-05-22T10:37:58.101Z,1070.00
2023-05-22T10:38:57.080Z,1078.00
2023-05-22T10:39:57.137Z,1075.00
2023-05-22T10:40:57.078Z,1071.00
2023-05-22T10:41:57.054Z,1066.00
2023-05-22T10:42:57.052Z,1060.00
2023-05-22T10:43:57.047Z,1065.00
2023-05-22T10:44:57.056Z,1062.00
2023-05-22T10:45:57.109Z,1051.00
2023-05-22T10:46:57.120Z,1046.00
2023-05-22T10:47:57.181Z,1038.00
2023-05-22T10:48:57.188Z,1026.00
2023-05-22T10:49:57.267Z,1012.00
2023-05-22T10:50:58.724Z,1004.00
2023-05-22T10:51:57.620Z,1002.00
2023-05-22T10:52:57.478Z,1000.00
2023-05-22T10:53:57.557Z,995.00
2023-05-22T10:54:57.552Z,991.00
2023-05-22T10:55:57.528Z,983.00
2023-05-22T10:56:57.523Z,980.00
2023-05-22T10:57:57.550Z,974.00
2023-05-22T10:58:57.536Z,973.00
2023-05-22T10:59:57.513Z,971.00
2023-05-22T11:00:57.490Z,966.00
2023-05-22T11:01:57.548Z,960.00
2023-05-22T11:03:03.340Z,958.00
2023-05-22T11:03:58.514Z,952.00
2023-05-22T11:04:57.536Z,949.00
2023-05-22T11:05:57.494Z,944.00
2023-05-22T11:06:57.482Z,937.00
2023-05-22T11:07:57.554Z,932.00
2023-05-22T11:08:57.524Z,926.00
2023-05-22T11:09:57.480Z,917.00
2023-05-22T11:10:57.445Z,912.00
2023-05-22T11:11:57.448Z,909.00
2023-05-22T11:12:57.497Z,906.00
2023-05-22T11:13:58.469Z,905.00
2023-05-22T11:14:57.462Z,904.00
2023-05-22T11:15:57.419Z,903.00
2023-05-22T11:16:57.482Z,900.00
2023-05-22T11:17:57.447Z,896.00
2023-05-22T11:18:58.831Z,891.00
2023-05-22T11:19:57.437Z,882.00
2023-05-22T11:20:57.400Z,877.00
2023-05-22T11:21:57.390Z,877.00
2023-05-22T11:22:57.669Z,880.00
2023-05-22T11:23:57.469Z,836.00
2023-05-22T11:24:57.600Z,802.00
2023-05-22T11:25:57.363Z,797.00
2023-05-22T11:26:57.343Z,803.00
2023-05-22T11:27:58.271Z,804.00
2023-05-22T11:28:57.332Z,807.00
2023-05-22T11:29:57.349Z,815.00
2023-05-22T11:30:57.340Z,824.00
2023-05-22T11:31:57.313Z,823.00
2023-05-22T11:32:57.380Z,818.00
2023-05-22T11:33:57.308Z,810.00
2023-05-22T11:34:57.302Z,796.00
2023-05-22T11:35:57.335Z,789.00
2023-05-22T11:36:57.283Z,786.00
2023-05-22T11:37:57.280Z,785.00
2023-05-22T11:38:57.296Z,783.00
2023-05-22T11:39:57.349Z,786.00
2023-05-22T11:40:57.290Z,788.00
2023-05-22T11:41:57.255Z,786.00
2023-05-22T11:42:57.300Z,783.00
2023-05-22T11:43:57.240Z,777.00
2023-05-22T11:44:57.240Z,774.00
2023-05-22T11:45:57.261Z,771.00
2023-05-22T11:46:57.215Z,764.00
2023-05-22T11:47:57.316Z,758.00
2023-05-22T11:48:57.217Z,755.00
2023-05-22T11:49:57.208Z,750.00
2023-05-22T11:50:57.200Z,749.00
2023-05-22T11:51:57.186Z,745.00
2023-05-22T11:52:57.218Z,739.00
2023-05-22T11:53:57.232Z,735.00
2023-05-22T11:54:57.210Z,732.00
2023-05-22T11:55:57.305Z,729.00
2023-05-22T11:56:57.236Z,725.00
2023-05-22T11:57:57.243Z,721.00
2023-05-22T11:58:57.267Z,718.00
2023-05-22T11:59:57.290Z,716.00
2023-05-22T12:00:57.300Z,714.00
2023-05-22T12:01:57.282Z,711.00
2023-05-22T12:02:57.369Z,708.00
2023-05-22T12:03:57.477Z,707.00
2023-05-22T12:04:57.324Z,705.00
2023-05-22T12:05:57.412Z,702.00
2023-05-22T12:06:57.371Z,699.00
2023-05-22T12:07:57.342Z,700.00
2023-05-22T12:08:57.361Z,701.00
2023-05-22T12:09:57.378Z,699.00
2023-05-22T12:10:57.385Z,695.00
2023-05-22T12:11:57.492Z,695.00
2023-05-22T12:12:57.416Z,691.00
2023-05-22T12:13:57.456Z,688.00
2023-05-22T12:14:57.439Z,686.00
2023-05-22T12:15:57.482Z,683.00
2023-05-22T12:16:57.498Z,679.00
2023-05-22T12:17:57.533Z,675.00
2023-05-22T12:18:57.530Z,674.00
2023-05-22T12:19:57.506Z,673.00
2023-05-22T12:20:57.534Z,671.00
2023-05-22T12:21:57.547Z,671.00